sensor_id;sensor_type;location;lat;lon;timestamp;temperature;humidity
44271;DHT22;29963;44.594;11.368;2023-04-03T00:00:22;9.70;99.90
44271;DHT22;29963;44.594;11.368;2023-04-03T00:02:48;9.60;99.90
44271;DHT22;29963;44.594;11.368;2023-04-03T00:05:14;9.60;99.90
44271;DHT22;29963;44.594;11.368;2023-04-03T00:07:39;9.60;99.90
44271;DHT22;29963;44.594;11.368;2023-04-03T00:10:06;9.60;99.90
44271;DHT22;29963;44.594;11.368;2023-04-03T00:12:31;9.60;99.90
44271;DHT22;29963;44.594;11.368;2023-04-03T00:14:57;9.60;99.90
44271;DHT22;29963;44.594;11.368;2023-04-03T00:17:23;9.50;99.90
44271;DHT22;29963;44.594;11.368;2023-04-03T00:19:48;9.60;99.90
44271;DHT22;29963;44.594;11.368;2023-04-03T00:22:14;9.60;99.90
44271;DHT22;29963;44.594;11.368;2023-04-03T00:24:40;9.50;99.90
44271;DHT22;29963;44.594;11.368;2023-04-03T00:27:05;9.50;99.90
44271;DHT22;29963;44.594;11.368;2023-04-03T00:29:31;9.40;99.90
44271;DHT22;29963;44.594;11.368;2023-04-03T00:31:56;9.40;99.90
44271;DHT22;29963;44.594;11.368;2023-04-03T00:34:22;9.40;99.90
44271;DHT22;29963;44.594;11.368;2023-04-03T00:36:48;9.40;99.90
44271;DHT22;29963;44.594;11.368;2023-04-03T00:39:13;9.40;99.90
44271;DHT22;29963;44.594;11.368;2023-04-03T00:41:39;9.40;99.90
44271;DHT22;29963;44.594;11.368;2023-04-03T00:46:54;9.30;99.90
44271;DHT22;29963;44.594;11.368;2023-04-03T00:49:20;9.30;99.90
44271;DHT22;29963;44.594;11.368;2023-04-03T00:51:46;9.30;99.90
44271;DHT22;29963;44.594;11.368;2023-04-03T00:54:12;9.30;99.90
44271;DHT22;29963;44.594;11.368;2023-04-03T00:56:38;9.30;99.90
44271;DHT22;29963;44.594;11.368;2023-04-03T00:59:08;9.20;99.90
44271;DHT22;29963;44.594;11.368;2023-04-03T01:01:35;9.30;99.90
44271;DHT22;29963;44.594;11.368;2023-04-03T01:04:02;9.50;99.90
44271;DHT22;29963;44.594;11.368;2023-04-03T01:06:31;9.50;99.90
44271;DHT22;29963;44.594;11.368;2023-04-03T01:08:59;9.60;99.90
44271;DHT22;29963;44.594;11.368;2023-04-03T01:11:25;9.70;99.90
44271;DHT22;29963;44.594;11.368;2023-04-03T01:13:51;9.70;99.90
44271;DHT22;29963;44.594;11.368;2023-04-03T01:16:17;9.70;99.90
44271;DHT22;29963;44.594;11.368;2023-04-03T01:18:44;9.70;99.90
44271;DHT22;29963;44.594;11.368;2023-04-03T01:26:53;9.60;99.90
44271;DHT22;29963;44.594;11.368;2023-04-03T01:29:19;9.50;99.90
44271;DHT22;29963;44.594;11.368;2023-04-03T01:31:54;9.50;99.90
44271;DHT22;29963;44.594;11.368;2023-04-03T01:34:20;9.50;99.90
44271;DHT22;29963;44.594;11.368;2023-04-03T01:36:46;9.50;99.90
44271;DHT22;29963;44.594;11.368;2023-04-03T01:39:12;9.50;99.90
44271;DHT22;29963;44.594;11.368;2023-04-03T01:41:38;9.50;99.90
44271;DHT22;29963;44.594;11.368;2023-04-03T01:44:04;9.50;99.90
44271;DHT22;29963;44.594;11.368;2023-04-03T01:46:29;9.50;99.90
44271;DHT22;29963;44.594;11.368;2023-04-03T01:48:55;9.40;99.90
44271;DHT22;29963;44.594;11.368;2023-04-03T01:51:21;9.30;99.90
44271;DHT22;29963;44.594;11.368;2023-04-03T01:53:47;9.30;99.90
44271;DHT22;29963;44.594;11.368;2023-04-03T01:56:13;9.20;99.90
44271;DHT22;29963;44.594;11.368;2023-04-03T01:58:39;9.10;99.90
44271;DHT22;29963;44.594;11.368;2023-04-03T02:01:05;9.10;99.90
44271;DHT22;29963;44.594;11.368;2023-04-03T02:03:31;9.10;99.90
44271;DHT22;29963;44.594;11.368;2023-04-03T02:05:57;9.20;99.90
44271;DHT22;29963;44.594;11.368;2023-04-03T02:08:22;9.10;99.90
44271;DHT22;29963;44.594;11.368;2023-04-03T02:10:49;9.20;99.90
44271;DHT22;29963;44.594;11.368;2023-04-03T02:13:16;9.30;99.90
44271;DHT22;29963;44.594;11.368;2023-04-03T02:15:42;9.40;99.90
44271;DHT22;29963;44.594;11.368;2023-04-03T02:18:08;9.40;99.90
44271;DHT22;29963;44.594;11.368;2023-04-03T02:20:34;9.40;99.90
44271;DHT22;29963;44.594;11.368;2023-04-03T02:23:00;9.40;99.90
44271;DHT22;29963;44.594;11.368;2023-04-03T02:25:25;9.40;99.90
44271;DHT22;29963;44.594;11.368;2023-04-03T02:27:51;9.30;99.90
44271;DHT22;29963;44.594;11.368;2023-04-03T02:30:17;9.20;99.90
44271;DHT22;29963;44.594;11.368;2023-04-03T02:32:43;9.20;99.90
44271;DHT22;29963;44.594;11.368;2023-04-03T02:35:09;9.10;99.90
44271;DHT22;29963;44.594;11.368;2023-04-03T02:37:36;9.00;99.90
44271;DHT22;29963;44.594;11.368;2023-04-03T02:40:02;8.90;99.90
44271;DHT22;29963;44.594;11.368;2023-04-03T02:42:27;8.80;99.90
44271;DHT22;29963;44.594;11.368;2023-04-03T02:44:53;8.80;99.90
44271;DHT22;29963;44.594;11.368;2023-04-03T02:47:19;8.90;99.90
44271;DHT22;29963;44.594;11.368;2023-04-03T02:49:44;8.90;99.90
44271;DHT22;29963;44.594;11.368;2023-04-03T02:52:12;9.00;99.90
44271;DHT22;29963;44.594;11.368;2023-04-03T02:54:37;9.00;99.90
44271;DHT22;29963;44.594;11.368;2023-04-03T02:57:03;9.10;99.90
44271;DHT22;29963;44.594;11.368;2023-04-03T02:59:28;9.10;99.90
44271;DHT22;29963;44.594;11.368;2023-04-03T03:01:54;9.20;99.90
44271;DHT22;29963;44.594;11.368;2023-04-03T03:04:21;9.20;99.90
44271;DHT22;29963;44.594;11.368;2023-04-03T03:06:46;9.10;99.90
44271;DHT22;29963;44.594;11.368;2023-04-03T03:09:12;9.10;99.90
44271;DHT22;29963;44.594;11.368;2023-04-03T03:11:38;9.00;99.90
44271;DHT22;29963;44.594;11.368;2023-04-03T03:14:04;8.90;99.90
44271;DHT22;29963;44.594;11.368;2023-04-03T03:16:30;9.00;99.90
44271;DHT22;29963;44.594;11.368;2023-04-03T03:18:55;9.00;99.90
44271;DHT22;29963;44.594;11.368;2023-04-03T03:21:21;9.00;99.90
44271;DHT22;29963;44.594;11.368;2023-04-03T03:23:46;9.00;99.90
44271;DHT22;29963;44.594;11.368;2023-04-03T03:26:12;9.00;99.90
44271;DHT22;29963;44.594;11.368;2023-04-03T03:28:39;8.90;99.90
44271;DHT22;29963;44.594;11.368;2023-04-03T03:31:06;8.90;99.90
44271;DHT22;29963;44.594;11.368;2023-04-03T03:33:32;8.90;99.90
44271;DHT22;29963;44.594;11.368;2023-04-03T03:35:58;8.90;99.90
44271;DHT22;29963;44.594;11.368;2023-04-03T03:38:23;8.90;99.90
44271;DHT22;29963;44.594;11.368;2023-04-03T03:40:50;9.00;99.90
44271;DHT22;29963;44.594;11.368;2023-04-03T03:43:17;9.00;99.90
44271;DHT22;29963;44.594;11.368;2023-04-03T03:45:43;9.10;99.90
44271;DHT22;29963;44.594;11.368;2023-04-03T03:48:09;9.10;99.90
44271;DHT22;29963;44.594;11.368;2023-04-03T03:50:35;9.10;99.90
44271;DHT22;29963;44.594;11.368;2023-04-03T03:53:01;9.10;99.90
44271;DHT22;29963;44.594;11.368;2023-04-03T03:55:26;9.10;99.90
44271;DHT22;29963;44.594;11.368;2023-04-03T03:57:52;9.20;99.90
44271;DHT22;29963;44.594;11.368;2023-04-03T04:00:18;9.10;99.90
44271;DHT22;29963;44.594;11.368;2023-04-03T04:02:44;9.10;99.90
44271;DHT22;29963;44.594;11.368;2023-04-03T04:05:10;9.10;99.90
44271;DHT22;29963;44.594;11.368;2023-04-03T04:07:36;9.10;99.90
44271;DHT22;29963;44.594;11.368;2023-04-03T04:10:02;9.10;99.90
44271;DHT22;29963;44.594;11.368;2023-04-03T04:12:27;9.00;99.90
44271;DHT22;29963;44.594;11.368;2023-04-03T04:14:53;9.10;99.90
44271;DHT22;29963;44.594;11.368;2023-04-03T04:17:19;9.10;99.90
44271;DHT22;29963;44.594;11.368;2023-04-03T04:19:45;9.10;99.90
44271;DHT22;29963;44.594;11.368;2023-04-03T04:22:10;9.10;99.90
44271;DHT22;29963;44.594;11.368;2023-04-03T04:24:36;8.90;99.90
44271;DHT22;29963;44.594;11.368;2023-04-03T04:27:02;8.90;99.90
44271;DHT22;29963;44.594;11.368;2023-04-03T04:29:28;8.90;99.90
44271;DHT22;29963;44.594;11.368;2023-04-03T04:31:53;8.90;99.90
44271;DHT22;29963;44.594;11.368;2023-04-03T04:34:19;8.90;99.90
44271;DHT22;29963;44.594;11.368;2023-04-03T04:36:45;8.90;99.90
44271;DHT22;29963;44.594;11.368;2023-04-03T04:39:11;8.80;99.90
44271;DHT22;29963;44.594;11.368;2023-04-03T04:41:36;8.80;99.90
44271;DHT22;29963;44.594;11.368;2023-04-03T04:44:02;8.80;99.90
44271;DHT22;29963;44.594;11.368;2023-04-03T04:46:28;8.70;99.90
44271;DHT22;29963;44.594;11.368;2023-04-03T04:48:53;8.70;99.90
44271;DHT22;29963;44.594;11.368;2023-04-03T04:51:19;8.80;99.90
44271;DHT22;29963;44.594;11.368;2023-04-03T04:53:45;8.80;99.90
44271;DHT22;29963;44.594;11.368;2023-04-03T04:56:11;8.80;99.90
44271;DHT22;29963;44.594;11.368;2023-04-03T04:58:37;8.80;99.90
44271;DHT22;29963;44.594;11.368;2023-04-03T05:01:08;8.80;99.90
44271;DHT22;29963;44.594;11.368;2023-04-03T05:03:34;8.80;99.90
44271;DHT22;29963;44.594;11.368;2023-04-03T05:05:59;8.80;99.90
44271;DHT22;29963;44.594;11.368;2023-04-03T05:08:25;8.90;99.90
44271;DHT22;29963;44.594;11.368;2023-04-03T05:10:51;8.80;99.90
44271;DHT22;29963;44.594;11.368;2023-04-03T05:13:18;8.70;99.90
44271;DHT22;29963;44.594;11.368;2023-04-03T05:15:44;8.70;99.90
44271;DHT22;29963;44.594;11.368;2023-04-03T05:18:09;8.80;99.90
44271;DHT22;29963;44.594;11.368;2023-04-03T05:20:35;8.80;99.90
44271;DHT22;29963;44.594;11.368;2023-04-03T05:23:02;8.80;99.90
44271;DHT22;29963;44.594;11.368;2023-04-03T05:25:28;8.80;99.90
44271;DHT22;29963;44.594;11.368;2023-04-03T05:27:53;8.80;99.90
44271;DHT22;29963;44.594;11.368;2023-04-03T05:30:19;8.80;99.90
44271;DHT22;29963;44.594;11.368;2023-04-03T05:32:45;8.80;99.90
44271;DHT22;29963;44.594;11.368;2023-04-03T05:35:11;8.80;99.90
44271;DHT22;29963;44.594;11.368;2023-04-03T05:37:37;8.80;99.90
44271;DHT22;29963;44.594;11.368;2023-04-03T05:40:06;8.80;99.90
44271;DHT22;29963;44.594;11.368;2023-04-03T05:42:32;8.80;99.90
44271;DHT22;29963;44.594;11.368;2023-04-03T05:44:58;8.90;99.90
44271;DHT22;29963;44.594;11.368;2023-04-03T05:47:24;9.00;99.90
44271;DHT22;29963;44.594;11.368;2023-04-03T05:49:50;9.00;99.90
44271;DHT22;29963;44.594;11.368;2023-04-03T05:52:27;9.10;99.90
44271;DHT22;29963;44.594;11.368;2023-04-03T05:54:53;9.20;99.90
44271;DHT22;29963;44.594;11.368;2023-04-03T05:57:19;9.20;99.90
44271;DHT22;29963;44.594;11.368;2023-04-03T05:59:46;9.20;99.90
44271;DHT22;29963;44.594;11.368;2023-04-03T06:02:20;9.20;99.90
44271;DHT22;29963;44.594;11.368;2023-04-03T06:04:47;9.10;99.90
44271;DHT22;29963;44.594;11.368;2023-04-03T06:07:17;9.10;99.90
44271;DHT22;29963;44.594;11.368;2023-04-03T06:09:44;9.10;99.90
44271;DHT22;29963;44.594;11.368;2023-04-03T06:12:11;9.10;99.90
44271;DHT22;29963;44.594;11.368;2023-04-03T06:14:36;9.20;99.90
44271;DHT22;29963;44.594;11.368;2023-04-03T06:17:02;9.30;99.90
44271;DHT22;29963;44.594;11.368;2023-04-03T06:19:28;9.40;99.90
44271;DHT22;29963;44.594;11.368;2023-04-03T06:21:54;9.50;99.90
44271;DHT22;29963;44.594;11.368;2023-04-03T06:24:20;9.60;99.90
44271;DHT22;29963;44.594;11.368;2023-04-03T06:26:48;9.60;99.90
44271;DHT22;29963;44.594;11.368;2023-04-03T06:29:15;9.60;99.90
44271;DHT22;29963;44.594;11.368;2023-04-03T06:31:40;9.70;99.90
44271;DHT22;29963;44.594;11.368;2023-04-03T06:34:06;9.80;99.90
44271;DHT22;29963;44.594;11.368;2023-04-03T06:36:33;9.80;99.90
44271;DHT22;29963;44.594;11.368;2023-04-03T06:38:58;9.90;99.90
44271;DHT22;29963;44.594;11.368;2023-04-03T06:41:24;9.90;99.90
44271;DHT22;29963;44.594;11.368;2023-04-03T06:43:50;10.00;99.90
44271;DHT22;29963;44.594;11.368;2023-04-03T06:46:18;10.10;99.90
44271;DHT22;29963;44.594;11.368;2023-04-03T06:48:44;10.20;99.90
44271;DHT22;29963;44.594;11.368;2023-04-03T06:51:30;10.20;99.90
44271;DHT22;29963;44.594;11.368;2023-04-03T06:53:58;10.30;99.90
44271;DHT22;29963;44.594;11.368;2023-04-03T06:56:24;10.30;99.90
44271;DHT22;29963;44.594;11.368;2023-04-03T06:58:50;10.40;99.90
44271;DHT22;29963;44.594;11.368;2023-04-03T07:01:17;10.50;99.90
44271;DHT22;29963;44.594;11.368;2023-04-03T07:03:45;10.50;99.90
44271;DHT22;29963;44.594;11.368;2023-04-03T07:06:12;10.60;99.90
44271;DHT22;29963;44.594;11.368;2023-04-03T07:08:38;10.60;99.90
44271;DHT22;29963;44.594;11.368;2023-04-03T07:11:05;10.60;99.90
44271;DHT22;29963;44.594;11.368;2023-04-03T07:13:30;10.70;99.90
44271;DHT22;29963;44.594;11.368;2023-04-03T07:15:56;10.80;99.90
44271;DHT22;29963;44.594;11.368;2023-04-03T07:18:23;10.90;99.90
44271;DHT22;29963;44.594;11.368;2023-04-03T07:20:48;10.90;99.90
44271;DHT22;29963;44.594;11.368;2023-04-03T07:23:14;10.90;99.90
44271;DHT22;29963;44.594;11.368;2023-04-03T07:25:47;11.00;99.90
44271;DHT22;29963;44.594;11.368;2023-04-03T07:28:14;11.00;99.90
44271;DHT22;29963;44.594;11.368;2023-04-03T07:30:48;11.10;99.90
44271;DHT22;29963;44.594;11.368;2023-04-03T07:33:15;11.20;99.90
44271;DHT22;29963;44.594;11.368;2023-04-03T07:35:42;11.40;99.90
44271;DHT22;29963;44.594;11.368;2023-04-03T07:38:09;11.40;99.90
44271;DHT22;29963;44.594;11.368;2023-04-03T07:40:35;11.50;99.90
44271;DHT22;29963;44.594;11.368;2023-04-03T07:43:01;11.50;99.90
44271;DHT22;29963;44.594;11.368;2023-04-03T07:45:28;11.70;99.90
44271;DHT22;29963;44.594;11.368;2023-04-03T07:47:54;11.80;99.90
44271;DHT22;29963;44.594;11.368;2023-04-03T07:50:20;11.90;99.90
44271;DHT22;29963;44.594;11.368;2023-04-03T07:52:46;11.90;99.90
44271;DHT22;29963;44.594;11.368;2023-04-03T07:55:12;12.00;99.90
44271;DHT22;29963;44.594;11.368;2023-04-03T07:57:37;12.10;99.90
44271;DHT22;29963;44.594;11.368;2023-04-03T08:00:04;12.30;99.90
44271;DHT22;29963;44.594;11.368;2023-04-03T08:02:30;12.40;99.90
44271;DHT22;29963;44.594;11.368;2023-04-03T08:04:58;12.50;99.90
44271;DHT22;29963;44.594;11.368;2023-04-03T08:07:23;12.60;99.90
44271;DHT22;29963;44.594;11.368;2023-04-03T08:09:49;12.80;99.90
44271;DHT22;29963;44.594;11.368;2023-04-03T08:12:16;12.90;99.90
44271;DHT22;29963;44.594;11.368;2023-04-03T08:14:41;13.00;99.90
44271;DHT22;29963;44.594;11.368;2023-04-03T08:17:08;13.00;99.90
44271;DHT22;29963;44.594;11.368;2023-04-03T08:19:37;13.10;99.90
44271;DHT22;29963;44.594;11.368;2023-04-03T08:22:04;13.20;99.90
44271;DHT22;29963;44.594;11.368;2023-04-03T08:24:31;13.30;99.90
44271;DHT22;29963;44.594;11.368;2023-04-03T08:26:57;13.40;99.90
44271;DHT22;29963;44.594;11.368;2023-04-03T08:29:23;13.50;99.90
44271;DHT22;29963;44.594;11.368;2023-04-03T08:31:49;13.60;99.90
44271;DHT22;29963;44.594;11.368;2023-04-03T08:34:16;13.70;99.90
44271;DHT22;29963;44.594;11.368;2023-04-03T08:36:42;13.80;99.90
44271;DHT22;29963;44.594;11.368;2023-04-03T08:39:08;13.90;99.90
44271;DHT22;29963;44.594;11.368;2023-04-03T08:41:44;14.00;99.90
44271;DHT22;29963;44.594;11.368;2023-04-03T08:49:48;14.20;99.90
44271;DHT22;29963;44.594;11.368;2023-04-03T08:52:42;14.20;99.90
44271;DHT22;29963;44.594;11.368;2023-04-03T08:57:47;14.30;99.90
44271;DHT22;29963;44.594;11.368;2023-04-03T09:00:21;14.20;99.90
44271;DHT22;29963;44.594;11.368;2023-04-03T09:02:57;14.10;99.90
44271;DHT22;29963;44.594;11.368;2023-04-03T09:10:37;14.00;99.90
44271;DHT22;29963;44.594;11.368;2023-04-03T09:13:39;14.00;99.90
44271;DHT22;29963;44.594;11.368;2023-04-03T09:16:26;14.00;99.90
44271;DHT22;29963;44.594;11.368;2023-04-03T09:21:41;14.00;99.90
44271;DHT22;29963;44.594;11.368;2023-04-03T09:24:10;14.00;99.90
44271;DHT22;29963;44.594;11.368;2023-04-03T09:27:04;14.00;99.90
44271;DHT22;29963;44.594;11.368;2023-04-03T09:29:28;14.10;99.90
44271;DHT22;29963;44.594;11.368;2023-04-03T09:32:00;14.10;99.90
44271;DHT22;29963;44.594;11.368;2023-04-03T09:34:35;14.10;99.90
44271;DHT22;29963;44.594;11.368;2023-04-03T09:37:03;14.00;99.90
44271;DHT22;29963;44.594;11.368;2023-04-03T09:39:51;14.00;99.90
44271;DHT22;29963;44.594;11.368;2023-04-03T09:42:24;14.00;99.90
44271;DHT22;29963;44.594;11.368;2023-04-03T09:44:55;13.90;99.90
44271;DHT22;29963;44.594;11.368;2023-04-03T09:52:38;13.80;99.90
44271;DHT22;29963;44.594;11.368;2023-04-03T09:55:18;13.80;99.90
44271;DHT22;29963;44.594;11.368;2023-04-03T09:57:46;13.70;99.90
44271;DHT22;29963;44.594;11.368;2023-04-03T10:00:26;13.70;99.90
44271;DHT22;29963;44.594;11.368;2023-04-03T10:02:56;13.70;99.90
44271;DHT22;29963;44.594;11.368;2023-04-03T10:10:34;13.50;99.90
44271;DHT22;29963;44.594;11.368;2023-04-03T10:13:20;13.50;99.90
44271;DHT22;29963;44.594;11.368;2023-04-03T10:16:07;13.50;99.90
44271;DHT22;29963;44.594;11.368;2023-04-03T10:18:59;13.50;99.90
44271;DHT22;29963;44.594;11.368;2023-04-03T10:22:00;13.50;99.90
44271;DHT22;29963;44.594;11.368;2023-04-03T10:27:10;13.40;99.90
44271;DHT22;29963;44.594;11.368;2023-04-03T10:30:02;13.40;99.90
44271;DHT22;29963;44.594;11.368;2023-04-03T10:32:58;13.40;99.90
44271;DHT22;29963;44.594;11.368;2023-04-03T10:38:31;13.40;99.90
44271;DHT22;29963;44.594;11.368;2023-04-03T10:41:07;13.50;99.90
44271;DHT22;29963;44.594;11.368;2023-04-03T10:46:40;13.70;99.90
44271;DHT22;29963;44.594;11.368;2023-04-03T10:49:30;13.80;99.90
44271;DHT22;29963;44.594;11.368;2023-04-03T10:57:16;14.20;99.90
44271;DHT22;29963;44.594;11.368;2023-04-03T11:02:27;14.40;99.90
44271;DHT22;29963;44.594;11.368;2023-04-03T11:05:01;14.50;99.90
44271;DHT22;29963;44.594;11.368;2023-04-03T11:07:32;14.60;99.90
44271;DHT22;29963;44.594;11.368;2023-04-03T11:10:10;14.80;99.90
44271;DHT22;29963;44.594;11.368;2023-04-03T11:12:52;14.90;99.90
44271;DHT22;29963;44.594;11.368;2023-04-03T11:15:22;15.00;99.90
44271;DHT22;29963;44.594;11.368;2023-04-03T11:18:09;15.10;99.90
44271;DHT22;29963;44.594;11.368;2023-04-03T11:20:37;15.10;99.90
44271;DHT22;29963;44.594;11.368;2023-04-03T11:23:31;15.20;99.90
44271;DHT22;29963;44.594;11.368;2023-04-03T11:26:22;15.20;99.90
44271;DHT22;29963;44.594;11.368;2023-04-03T11:29:03;15.40;99.90
44271;DHT22;29963;44.594;11.368;2023-04-03T11:34:33;15.60;99.90
44271;DHT22;29963;44.594;11.368;2023-04-03T11:37:21;15.70;99.90
44271;DHT22;29963;44.594;11.368;2023-04-03T11:40:02;15.80;99.90
44271;DHT22;29963;44.594;11.368;2023-04-03T11:42:37;15.80;99.90
44271;DHT22;29963;44.594;11.368;2023-04-03T11:47:52;15.90;99.90
44271;DHT22;29963;44.594;11.368;2023-04-03T12:16:33;16.50;99.90
44271;DHT22;29963;44.594;11.368;2023-04-03T12:19:30;16.60;99.90
44271;DHT22;29963;44.594;11.368;2023-04-03T12:24:34;16.60;99.90
44271;DHT22;29963;44.594;11.368;2023-04-03T12:27:04;16.70;99.90
44271;DHT22;29963;44.594;11.368;2023-04-03T12:29:38;16.70;99.90
44271;DHT22;29963;44.594;11.368;2023-04-03T12:43:17;16.90;99.50
44271;DHT22;29963;44.594;11.368;2023-04-03T12:48:17;16.90;98.30
44271;DHT22;29963;44.594;11.368;2023-04-03T12:50:45;16.90;98.80
44271;DHT22;29963;44.594;11.368;2023-04-03T12:53:16;16.90;98.60
44271;DHT22;29963;44.594;11.368;2023-04-03T12:55:43;16.90;98.60
44271;DHT22;29963;44.594;11.368;2023-04-03T12:58:17;16.90;98.50
44271;DHT22;29963;44.594;11.368;2023-04-03T13:00:46;17.00;98.60
44271;DHT22;29963;44.594;11.368;2023-04-03T13:03:23;17.00;97.90
44271;DHT22;29963;44.594;11.368;2023-04-03T13:05:50;17.00;98.10
44271;DHT22;29963;44.594;11.368;2023-04-03T13:08:17;17.00;98.50
44271;DHT22;29963;44.594;11.368;2023-04-03T13:11:09;17.00;98.30
44271;DHT22;29963;44.594;11.368;2023-04-03T13:13:36;17.00;97.80
44271;DHT22;29963;44.594;11.368;2023-04-03T13:16:10;17.10;97.60
44271;DHT22;29963;44.594;11.368;2023-04-03T13:18:37;17.10;97.40
44271;DHT22;29963;44.594;11.368;2023-04-03T13:21:29;17.20;98.00
44271;DHT22;29963;44.594;11.368;2023-04-03T13:24:01;17.40;97.30
44271;DHT22;29963;44.594;11.368;2023-04-03T13:26:31;17.50;96.60
44271;DHT22;29963;44.594;11.368;2023-04-03T13:29:05;17.50;96.40
44271;DHT22;29963;44.594;11.368;2023-04-03T13:31:37;17.40;96.20
44271;DHT22;29963;44.594;11.368;2023-04-03T13:34:10;17.40;96.30
44271;DHT22;29963;44.594;11.368;2023-04-03T13:41:43;17.70;95.90
44271;DHT22;29963;44.594;11.368;2023-04-03T13:46:53;17.80;95.20
44271;DHT22;29963;44.594;11.368;2023-04-03T13:49:32;17.90;95.00
44271;DHT22;29963;44.594;11.368;2023-04-03T13:51:59;17.90;94.70
44271;DHT22;29963;44.594;11.368;2023-04-03T13:54:29;18.00;94.50
44271;DHT22;29963;44.594;11.368;2023-04-03T13:56:58;18.00;94.00
44271;DHT22;29963;44.594;11.368;2023-04-03T13:59:31;18.00;94.00
44271;DHT22;29963;44.594;11.368;2023-04-03T14:04:56;18.30;92.70
44271;DHT22;29963;44.594;11.368;2023-04-03T14:07:25;18.40;93.20
44271;DHT22;29963;44.594;11.368;2023-04-03T14:09:52;18.40;92.70
44271;DHT22;29963;44.594;11.368;2023-04-03T14:14:51;18.50;91.80
44271;DHT22;29963;44.594;11.368;2023-04-03T14:17:21;18.50;91.90
44271;DHT22;29963;44.594;11.368;2023-04-03T14:19:48;18.70;92.40
44271;DHT22;29963;44.594;11.368;2023-04-03T14:22:25;18.90;92.60
44271;DHT22;29963;44.594;11.368;2023-04-03T14:24:52;19.10;90.60
44271;DHT22;29963;44.594;11.368;2023-04-03T14:27:20;19.10;90.80
44271;DHT22;29963;44.594;11.368;2023-04-03T14:29:46;19.20;91.40
44271;DHT22;29963;44.594;11.368;2023-04-03T14:32:15;19.50;91.40
44271;DHT22;29963;44.594;11.368;2023-04-03T14:34:41;19.70;90.60
44271;DHT22;29963;44.594;11.368;2023-04-03T14:37:17;19.80;90.50
44271;DHT22;29963;44.594;11.368;2023-04-03T14:39:44;20.00;88.40
44271;DHT22;29963;44.594;11.368;2023-04-03T14:42:17;20.20;86.50
44271;DHT22;29963;44.594;11.368;2023-04-03T14:44:43;20.20;86.70
44271;DHT22;29963;44.594;11.368;2023-04-03T14:47:12;20.40;86.50
44271;DHT22;29963;44.594;11.368;2023-04-03T14:49:37;20.50;82.60
44271;DHT22;29963;44.594;11.368;2023-04-03T14:52:03;20.60;83.70
44271;DHT22;29963;44.594;11.368;2023-04-03T14:54:29;20.90;83.60
44271;DHT22;29963;44.594;11.368;2023-04-03T14:56:56;21.30;81.20
44271;DHT22;29963;44.594;11.368;2023-04-03T14:59:23;21.90;81.00
44271;DHT22;29963;44.594;11.368;2023-04-03T15:01:49;22.80;79.00
44271;DHT22;29963;44.594;11.368;2023-04-03T15:04:16;23.80;75.30
44271;DHT22;29963;44.594;11.368;2023-04-03T15:06:43;24.80;69.60
44271;DHT22;29963;44.594;11.368;2023-04-03T15:09:22;25.60;64.60
44271;DHT22;29963;44.594;11.368;2023-04-03T15:11:50;26.20;60.60
44271;DHT22;29963;44.594;11.368;2023-04-03T15:14:16;26.60;59.10
44271;DHT22;29963;44.594;11.368;2023-04-03T15:16:41;27.10;57.50
44271;DHT22;29963;44.594;11.368;2023-04-03T15:19:07;27.50;54.80
44271;DHT22;29963;44.594;11.368;2023-04-03T15:21:33;27.80;52.90
44271;DHT22;29963;44.594;11.368;2023-04-03T15:23:58;28.10;51.10
44271;DHT22;29963;44.594;11.368;2023-04-03T15:26:24;28.30;49.80
44271;DHT22;29963;44.594;11.368;2023-04-03T15:28:50;28.50;48.70
44271;DHT22;29963;44.594;11.368;2023-04-03T15:31:16;28.60;48.00
44271;DHT22;29963;44.594;11.368;2023-04-03T15:33:42;28.60;47.10
44271;DHT22;29963;44.594;11.368;2023-04-03T15:36:08;28.60;46.50
44271;DHT22;29963;44.594;11.368;2023-04-03T15:38:34;28.80;44.60
44271;DHT22;29963;44.594;11.368;2023-04-03T15:40:59;29.00;42.00
44271;DHT22;29963;44.594;11.368;2023-04-03T15:43:25;28.90;41.70
44271;DHT22;29963;44.594;11.368;2023-04-03T15:45:51;28.90;41.40
44271;DHT22;29963;44.594;11.368;2023-04-03T15:48:17;28.90;41.60
44271;DHT22;29963;44.594;11.368;2023-04-03T15:50:43;29.00;42.30
44271;DHT22;29963;44.594;11.368;2023-04-03T15:53:09;29.10;43.10
44271;DHT22;29963;44.594;11.368;2023-04-03T15:55:37;29.20;41.70
44271;DHT22;29963;44.594;11.368;2023-04-03T15:58:03;29.20;41.30
44271;DHT22;29963;44.594;11.368;2023-04-03T16:00:30;29.20;42.00
44271;DHT22;29963;44.594;11.368;2023-04-03T16:03:00;29.00;42.20
44271;DHT22;29963;44.594;11.368;2023-04-03T16:05:27;29.10;43.60
44271;DHT22;29963;44.594;11.368;2023-04-03T16:07:53;29.20;43.90
44271;DHT22;29963;44.594;11.368;2023-04-03T16:10:20;29.20;43.60
44271;DHT22;29963;44.594;11.368;2023-04-03T16:12:46;29.20;43.10
44271;DHT22;29963;44.594;11.368;2023-04-03T16:15:12;29.20;43.00
44271;DHT22;29963;44.594;11.368;2023-04-03T16:17:38;29.30;42.80
44271;DHT22;29963;44.594;11.368;2023-04-03T16:20:06;29.20;42.50
44271;DHT22;29963;44.594;11.368;2023-04-03T16:22:33;29.20;41.20
44271;DHT22;29963;44.594;11.368;2023-04-03T16:24:59;29.10;40.70
44271;DHT22;29963;44.594;11.368;2023-04-03T16:27:25;29.10;40.30
44271;DHT22;29963;44.594;11.368;2023-04-03T16:29:54;29.20;40.80
44271;DHT22;29963;44.594;11.368;2023-04-03T16:32:20;29.10;41.20
44271;DHT22;29963;44.594;11.368;2023-04-03T16:34:46;29.00;41.40
44271;DHT22;29963;44.594;11.368;2023-04-03T16:37:12;28.90;41.30
44271;DHT22;29963;44.594;11.368;2023-04-03T16:39:37;29.00;41.40
44271;DHT22;29963;44.594;11.368;2023-04-03T16:42:03;28.80;41.50
44271;DHT22;29963;44.594;11.368;2023-04-03T16:44:29;28.60;42.30
44271;DHT22;29963;44.594;11.368;2023-04-03T16:46:54;28.70;42.30
44271;DHT22;29963;44.594;11.368;2023-04-03T16:49:20;28.60;42.00
44271;DHT22;29963;44.594;11.368;2023-04-03T16:51:47;28.30;42.30
44271;DHT22;29963;44.594;11.368;2023-04-03T16:54:13;28.10;42.90
44271;DHT22;29963;44.594;11.368;2023-04-03T16:56:39;28.00;42.90
44271;DHT22;29963;44.594;11.368;2023-04-03T16:59:05;27.90;43.50
44271;DHT22;29963;44.594;11.368;2023-04-03T17:01:31;27.70;43.10
44271;DHT22;29963;44.594;11.368;2023-04-03T17:03:57;27.40;43.60
44271;DHT22;29963;44.594;11.368;2023-04-03T17:06:23;27.10;44.30
44271;DHT22;29963;44.594;11.368;2023-04-03T17:08:50;26.90;44.80
44271;DHT22;29963;44.594;11.368;2023-04-03T17:11:16;26.60;45.40
44271;DHT22;29963;44.594;11.368;2023-04-03T17:13:42;26.20;46.10
44271;DHT22;29963;44.594;11.368;2023-04-03T17:16:09;25.80;46.20
44271;DHT22;29963;44.594;11.368;2023-04-03T17:18:36;25.40;46.30
44271;DHT22;29963;44.594;11.368;2023-04-03T17:21:03;25.00;46.60
44271;DHT22;29963;44.594;11.368;2023-04-03T17:23:29;24.60;46.80